Time;durP1;ratioP1;P1;durP2;ratioP2;P2;SDS_P1;SDS_P2;PMS_P1;PMS_P2;Temp;Humidity;BMP_temperature;BMP_pressure;BME280_temperature;BME280_humidity;BME280_pressure;Samples;Min_cycle;Max_cycle;Signal;HPM_P1;HPM_P2
2020/12/14 00:01:19;;;;;;;1.27;0.80;;;;;;;18.92;56.97;100436.47;4823178;29;20038;-72
2020/12/14 00:03:44;;;;;;;1.45;0.82;;;;;;;18.90;57.13;100435.63;4821232;29;20086;-72
2020/12/14 00:06:09;;;;;;;1.55;0.80;;;;;;;18.87;57.06;100428.66;4807580;29;20042;-72
2020/12/14 00:08:35;;;;;;;4.45;1.20;;;;;;;18.89;56.96;100431.25;4821876;29;20826;-73
2020/12/14 00:11:00;;;;;;;2.58;1.10;;;;;;;18.89;56.81;100426.03;4823139;29;20121;-74
2020/12/14 00:13:26;;;;;;;5.30;1.30;;;;;;;18.83;56.88;100426.97;4806863;29;20070;-74
2020/12/14 00:15:54;;;;;;;2.47;1.25;;;;;;;18.88;56.82;100433.00;4791961;29;20560;-73
2020/12/14 00:18:25;;;;;;;2.47;1.10;;;;;;;18.83;56.93;100423.47;4823344;29;20030;-74
2020/12/14 00:20:50;;;;;;;5.05;1.10;;;;;;;18.84;56.87;100428.69;4807843;29;20042;-74
2020/12/14 00:23:16;;;;;;;1.80;0.95;;;;;;;18.83;57.05;100418.22;4807636;29;20397;-74
2020/12/14 00:25:41;;;;;;;3.35;1.23;;;;;;;18.81;56.91;100417.41;4805816;29;20519;-74
2020/12/14 00:28:07;;;;;;;3.15;0.90;;;;;;;18.81;56.79;100420.03;4806960;29;20038;-74
2020/12/14 00:30:32;;;;;;;2.53;1.27;;;;;;;18.81;56.86;100426.13;4807542;29;20034;-74
2020/12/14 00:32:58;;;;;;;2.17;0.90;;;;;;;18.81;56.85;100431.38;4823905;29;20030;-74
2020/12/14 00:35:23;;;;;;;2.25;0.95;;;;;;;18.82;56.65;100433.13;4805130;29;20039;-75
2020/12/14 00:37:48;;;;;;;4.07;1.17;;;;;;;18.79;56.75;100413.94;4806625;29;20437;-74
2020/12/14 00:40:14;;;;;;;2.85;1.15;;;;;;;18.75;56.72;100413.09;4815218;29;20090;-74
2020/12/14 00:42:43;;;;;;;2.53;1.20;;;;;;;18.78;56.79;100415.69;4791668;29;20067;-74
2020/12/14 00:45:08;;;;;;;1.05;0.70;;;;;;;18.73;56.76;100404.38;4803570;29;20099;-74
2020/12/14 00:47:34;;;;;;;1.65;1.00;;;;;;;18.79;56.80;100427.91;4825829;29;20559;-74
2020/12/14 00:49:59;;;;;;;3.30;2.35;;;;;;;18.73;56.75;100414.00;4809975;29;20026;-74
2020/12/14 00:52:25;;;;;;;1.73;0.82;;;;;;;18.74;56.69;100416.59;4824621;29;20038;-74
2020/12/14 00:54:50;;;;;;;2.22;0.82;;;;;;;18.73;56.65;100400.91;4794338;29;20050;-74
2020/12/14 00:57:15;;;;;;;2.45;1.10;;;;;;;18.76;56.87;100404.34;4792128;29;20054;-74
2020/12/14 00:59:41;;;;;;;2.10;1.00;;;;;;;18.76;56.84;100404.34;4816114;29;20034;-74
2020/12/14 01:02:06;;;;;;;2.33;1.05;;;;;;;18.70;56.76;100387.84;4795397;29;20035;-74
2020/12/14 01:04:31;;;;;;;1.92;0.95;;;;;;;18.74;56.60;100394.78;4810259;29;20042;-74
2020/12/14 01:06:57;;;;;;;1.50;0.90;;;;;;;18.73;56.70;100396.53;4825805;29;20046;-74
2020/12/14 01:09:23;;;;;;;1.92;0.85;;;;;;;18.75;56.71;100407.88;4809373;29;20451;-74
2020/12/14 01:11:48;;;;;;;2.03;1.15;;;;;;;18.74;56.66;100403.50;4800587;29;20086;-74
2020/12/14 01:14:13;;;;;;;1.63;1.00;;;;;;;18.73;56.73;100398.28;4821783;29;20045;-74
2020/12/14 01:16:39;;;;;;;1.67;0.85;;;;;;;18.74;56.59;100410.50;4810972;29;20086;-74
2020/12/14 01:19:04;;;;;;;2.80;0.88;;;;;;;18.70;56.31;100398.31;4815565;29;20041;-74
2020/12/14 01:21:30;;;;;;;1.15;0.70;;;;;;;18.74;56.65;100408.75;4825562;29;20070;-74
2020/12/14 01:23:55;;;;;;;1.30;0.90;;;;;;;18.71;56.59;100398.31;4826755;29;20057;-74
2020/12/14 01:26:20;;;;;;;1.23;0.75;;;;;;;18.70;56.58;100390.47;4798259;29;20091;-74
2020/12/14 01:28:53;;;;;;;1.45;1.05;;;;;;;18.69;56.47;100388.75;4824842;29;20034;-75
2020/12/14 01:31:19;;;;;;;1.63;0.70;;;;;;;18.70;56.47;100388.72;4807692;29;20057;-74
2020/12/14 01:33:44;;;;;;;2.72;0.95;;;;;;;18.71;56.59;100385.19;4808590;29;20478;-74
2020/12/14 01:36:09;;;;;;;1.08;0.60;;;;;;;18.70;56.51;100385.22;4825084;29;20053;-74
2020/12/14 01:38:35;;;;;;;2.92;1.05;;;;;;;18.69;56.35;100383.50;4804837;29;20026;-74
2020/12/14 01:41:00;;;;;;;1.70;0.93;;;;;;;18.72;56.41;100380.84;4806579;29;20113;-74
2020/12/14 01:43:26;;;;;;;1.23;0.73;;;;;;;18.68;56.44;100384.41;4826219;29;20058;-74
2020/12/14 01:45:51;;;;;;;1.52;0.60;;;;;;;18.70;56.28;100379.97;4809209;29;20038;-74
2020/12/14 01:48:17;;;;;;;1.60;1.02;;;;;;;18.67;56.23;100373.06;4825367;29;20039;-74
2020/12/14 01:50:43;;;;;;;2.65;0.85;;;;;;;18.68;56.57;100390.50;4825567;29;20026;-74
2020/12/14 01:53:10;;;;;;;1.60;0.60;;;;;;;18.68;56.42;100398.38;4826478;29;20493;-74
2020/12/14 01:55:41;;;;;;;1.35;0.88;;;;;;;18.68;56.46;100400.97;4810220;29;20033;-74
2020/12/14 01:58:07;;;;;;;1.20;0.60;;;;;;;18.65;56.59;100395.78;4809380;29;20034;-74
2020/12/14 02:00:33;;;;;;;1.25;0.70;;;;;;;18.67;56.43;100391.38;4809701;29;20514;-74
2020/12/14 02:02:58;;;;;;;1.35;0.68;;;;;;;18.64;56.53;100393.16;4824886;29;20058;-74
2020/12/14 02:05:24;;;;;;;0.85;0.60;;;;;;;18.68;56.49;100400.97;4824756;29;20042;-74
2020/12/14 02:07:49;;;;;;;0.82;0.70;;;;;;;18.60;56.38;100389.72;4826168;29;20038;-74
2020/12/14 02:10:14;;;;;;;2.78;0.95;;;;;;;18.60;56.65;100387.09;4809422;29;20030;-74
2020/12/14 02:12:40;;;;;;;2.00;0.70;;;;;;;18.63;56.39;100376.59;4809882;29;20141;-73
2020/12/14 02:15:05;;;;;;;2.40;1.10;;;;;;;18.65;56.42;100394.91;4805761;29;20467;-74
2020/12/14 02:17:31;;;;;;;1.30;0.88;;;;;;;18.64;56.58;100394.03;4820711;29;20049;-74
2020/12/14 02:19:56;;;;;;;1.73;1.20;;;;;;;18.61;56.53;100385.34;4809478;29;20054;-74
2020/12/14 02:22:24;;;;;;;1.15;0.60;;;;;;;18.61;56.33;100382.72;4824910;29;20046;-74
2020/12/14 02:24:57;;;;;;;0.65;0.60;;;;;;;18.60;56.48;100386.22;4800484;29;20081;-74
2020/12/14 02:27:23;;;;;;;;;;;;;;;18.62;56.42;100385.34;4825930;29;20034;-74
2020/12/14 02:29:48;;;;;;;1.05;0.70;;;;;;;18.62;56.16;100384.47;4825742;29;19920;-74
2020/12/14 02:32:15;;;;;;;0.40;0.40;;;;;;;18.61;56.55;100391.44;4823630;29;20038;-73
2020/12/14 02:34:42;;;;;;;1.30;0.70;;;;;;;18.59;56.26;100376.63;4808107;29;20121;-74
2020/12/14 02:37:09;;;;;;;0.98;0.63;;;;;;;18.61;56.32;100385.34;4807814;29;20038;-74
2020/12/14 02:39:37;;;;;;;2.15;0.98;;;;;;;18.59;56.54;100385.38;4825382;29;20023;-73
2020/12/14 02:42:05;;;;;;;1.25;0.77;;;;;;;18.61;56.41;100380.09;4792543;29;20045;-74
2020/12/14 02:44:30;;;;;;;2.05;0.90;;;;;;;18.59;56.54;100369.66;4825544;29;20114;-74
2020/12/14 02:46:55;;;;;;;1.42;0.70;;;;;;;18.59;56.57;100379.25;4808620;29;20125;-74
2020/12/14 02:49:21;;;;;;;1.10;0.70;;;;;;;18.59;56.35;100379.25;4824877;29;20117;-74
2020/12/14 02:51:46;;;;;;;1.55;0.68;;;;;;;18.59;56.30;100371.41;4824533;29;20105;-74
2020/12/14 02:54:11;;;;;;;2.25;0.63;;;;;;;18.54;56.42;100353.97;4823941;29;20034;-74
2020/12/14 02:56:40;;;;;;;0.90;0.70;;;;;;;18.55;56.22;100350.47;4821128;29;20042;-74
2020/12/14 02:59:06;;;;;;;1.10;0.60;;;;;;;18.59;56.30;100347.84;4809241;29;20038;-74
2020/12/14 03:01:31;;;;;;;1.02;0.70;;;;;;;18.57;56.34;100332.97;4824330;29;20046;-74
2020/12/14 03:03:56;;;;;;;1.23;1.05;;;;;;;18.57;56.35;100343.44;4819579;29;20046;-73
2020/12/14 03:06:22;;;;;;;1.10;0.70;;;;;;;18.55;56.64;100336.53;4822973;29;20042;-74
2020/12/14 03:08:47;;;;;;;1.63;0.95;;;;;;;18.56;56.26;100343.50;4793611;29;20038;-74
2020/12/14 03:11:14;;;;;;;2.28;0.70;;;;;;;18.57;56.34;100347.81;4814903;29;20649;-74
2020/12/14 03:13:39;;;;;;;1.15;0.60;;;;;;;18.53;56.53;100349.63;4806521;29;20140;-73
2020/12/14 03:16:05;;;;;;;0.95;0.60;;;;;;;18.55;56.32;100350.47;4823144;29;20125;-73
2020/12/14 03:18:30;;;;;;;1.40;0.73;;;;;;;18.54;56.56;100342.66;4821199;29;20051;-73
2020/12/14 03:20:55;;;;;;;0.65;0.35;;;;;;;18.54;56.47;100347.88;4809600;29;20409;-73
2020/12/14 03:23:21;;;;;;;0.47;0.40;;;;;;;18.54;56.36;100360.97;4788758;29;20486;-73
2020/12/14 03:25:46;;;;;;;1.98;0.60;;;;;;;18.52;56.61;100355.75;4821039;29;20038;-74
2020/12/14 03:28:11;;;;;;;1.55;0.90;;;;;;;18.51;56.48;100347.91;4824957;29;20026;-74
2020/12/14 03:30:37;;;;;;;1.65;0.60;;;;;;;18.51;56.90;100343.53;4793295;29;20355;-73
2020/12/14 03:33:02;;;;;;;0.52;0.43;;;;;;;18.51;56.54;100337.44;4822067;29;20026;-74
2020/12/14 03:35:27;;;;;;;0.90;0.60;;;;;;;18.51;56.61;100346.16;4809250;29;20026;-73
2020/12/14 03:37:53;;;;;;;1.55;1.00;;;;;;;18.51;56.66;100345.28;4793612;29;20072;-73
2020/12/14 03:40:18;;;;;;;1.95;0.50;;;;;;;18.48;56.44;100330.47;4811249;29;20066;-74
2020/12/14 03:42:43;;;;;;;0.90;0.60;;;;;;;18.48;56.51;100338.34;4823111;29;20038;-73
2020/12/14 03:45:09;;;;;;;1.38;0.50;;;;;;;18.50;56.55;100330.47;4805998;29;20054;-73
2020/12/14 03:47:34;;;;;;;1.10;0.70;;;;;;;18.44;56.63;100325.28;4806627;29;20521;-74
2020/12/14 03:49:59;;;;;;;1.05;0.68;;;;;;;18.50;56.71;100333.09;4793318;29;20047;-74
2020/12/14 03:52:25;;;;;;;1.10;0.70;;;;;;;18.46;56.79;100334.00;4820798;29;20042;-74
2020/12/14 03:54:51;;;;;;;2.13;1.08;;;;;;;18.49;56.53;100336.59;4824767;29;20531;-73
2020/12/14 03:57:16;;;;;;;0.82;0.50;;;;;;;18.47;56.49;100340.97;4793084;29;20042;-73
2020/12/14 03:59:41;;;;;;;1.08;0.50;;;;;;;18.46;56.56;100345.34;4816948;29;20038;-74
2020/12/14 04:02:07;;;;;;;0.70;0.50;;;;;;;18.46;56.43;100339.25;4798274;29;20061;-74
2020/12/14 04:04:32;;;;;;;1.05;0.70;;;;;;;18.47;56.56;100344.47;4807624;29;20042;-73
2020/12/14 04:06:58;;;;;;;1.80;0.80;;;;;;;18.41;56.42;100341.94;4823671;29;20038;-74
2020/12/14 04:09:24;;;;;;;0.82;0.45;;;;;;;18.47;56.42;100336.59;4799449;29;20095;-74
2020/12/14 04:11:49;;;;;;;1.05;0.60;;;;;;;18.46;56.45;100332.25;4822311;29;20030;-74
2020/12/14 04:14:14;;;;;;;0.57;0.47;;;;;;;18.46;56.44;100310.44;4807943;29;20095;-73
2020/12/14 04:16:42;;;;;;;0.38;0.38;;;;;;;18.42;56.38;100314.00;4824107;29;20117;-73
2020/12/14 04:19:08;;;;;;;0.90;0.73;;;;;;;18.36;56.53;100299.22;4793203;29;20038;-73
2020/12/14 04:21:33;;;;;;;0.88;0.60;;;;;;;18.39;56.49;100303.56;4780467;29;20038;-73
2020/12/14 04:23:58;;;;;;;0.65;0.30;;;;;;;18.45;56.39;100316.56;4799992;29;20474;-73
2020/12/14 04:26:24;;;;;;;1.02;0.50;;;;;;;18.44;56.26;100330.53;4811654;29;20496;-74
2020/12/14 04:28:49;;;;;;;1.25;0.80;;;;;;;18.44;56.46;100333.16;4817895;29;20039;-74
2020/12/14 04:31:14;;;;;;;1.25;0.52;;;;;;;18.44;56.34;100326.16;4794023;29;20034;-74
2020/12/14 04:33:41;;;;;;;1.27;0.80;;;;;;;18.42;56.55;100320.09;4811127;29;20043;-74
2020/12/14 04:36:06;;;;;;;0.65;0.50;;;;;;;18.43;56.52;100321.84;4826663;29;20118;-74
2020/12/14 04:38:31;;;;;;;1.05;0.65;;;;;;;18.39;56.41;100306.19;4808533;29;20125;-73
2020/12/14 04:41:02;;;;;;;0.73;0.47;;;;;;;18.42;56.43;100308.78;4787352;29;20403;-73
2020/12/14 04:43:28;;;;;;;0.50;0.50;;;;;;;18.42;56.45;100299.16;4820052;29;20520;-73
2020/12/14 04:45:54;;;;;;;0.98;0.70;;;;;;;18.37;56.30;100287.88;4810661;29;20039;-73
2020/12/14 04:48:20;;;;;;;0.98;0.50;;;;;;;18.40;56.40;100281.75;4808147;29;20391;-74
2020/12/14 04:50:46;;;;;;;0.60;0.40;;;;;;;18.40;56.53;100271.28;4825498;29;20038;-73
2020/12/14 04:53:11;;;;;;;0.57;0.50;;;;;;;18.36;56.43;100252.13;4821143;29;20031;-73
2020/12/14 04:55:37;;;;;;;0.68;0.40;;;;;;;18.40;56.24;100247.72;4826707;29;20034;-73
2020/12/14 04:58:05;;;;;;;1.13;0.47;;;;;;;18.41;56.40;100262.53;4825527;29;20378;-74
2020/12/14 05:00:30;;;;;;;1.00;0.40;;;;;;;18.38;56.31;100310.56;4809736;29;20023;-74
2020/12/14 05:02:56;;;;;;;0.82;0.50;;;;;;;18.38;56.44;100307.06;4810628;29;20034;-74
2020/12/14 05:05:25;;;;;;;0.75;0.47;;;;;;;18.39;56.56;100307.06;4810935;29;20060;-74
2020/12/14 05:07:50;;;;;;;0.40;0.40;;;;;;;18.37;56.46;100303.59;4825617;29;20034;-74
2020/12/14 05:10:22;;;;;;;0.63;0.52;;;;;;;18.38;56.29;100293.97;4792016;29;20508;-74
2020/12/14 05:12:47;;;;;;;0.52;0.40;;;;;;;18.36;56.53;100286.16;4793157;29;20124;-74
2020/12/14 05:15:26;;;;;;;0.80;0.30;;;;;;;18.38;56.46;100293.97;4810290;29;20434;-73
2020/12/14 05:18:07;;;;;;;1.48;0.65;;;;;;;18.34;56.26;100292.28;4806492;29;20124;-74
2020/12/14 05:20:33;;;;;;;0.77;0.55;;;;;;;18.36;56.33;100291.38;4801903;29;20050;-74
2020/12/14 05:23:05;;;;;;;0.90;0.40;;;;;;;18.38;56.50;100291.34;4810030;29;20398;-74
2020/12/14 05:25:31;;;;;;;0.77;0.60;;;;;;;18.34;56.30;100287.03;4797088;29;20110;-73
2020/12/14 05:28:14;;;;;;;1.25;0.60;;;;;;;18.36;56.38;100293.13;4794935;29;20461;-74
2020/12/14 05:30:44;;;;;;;0.55;0.40;;;;;;;18.36;56.44;100290.50;4820225;29;20648;-73
2020/12/14 05:33:11;;;;;;;1.45;0.60;;;;;;;18.37;56.69;100289.63;4822180;29;20146;-73
2020/12/14 05:35:39;;;;;;;0.63;0.50;;;;;;;18.35;56.27;100289.63;4826541;29;20382;-73
2020/12/14 05:38:30;;;;;;;1.45;0.77;;;;;;;18.35;56.30;100284.41;4825919;29;20054;-73
2020/12/14 05:40:58;;;;;;;0.47;0.45;;;;;;;18.34;56.54;100298.38;4812502;29;21024;-74
2020/12/14 05:43:26;;;;;;;1.17;0.43;;;;;;;18.34;56.55;100303.63;4824947;29;20051;-73
2020/12/14 05:45:52;;;;;;;0.70;0.43;;;;;;;18.32;56.59;100300.16;4826657;29;20039;-73
2020/12/14 05:48:32;;;;;;;1.13;0.52;;;;;;;18.32;56.46;100291.44;4805756;29;20042;-74
2020/12/14 05:51:00;;;;;;;0.85;0.60;;;;;;;18.34;56.58;100297.50;4799886;29;20382;-73
2020/12/14 05:53:31;;;;;;;1.08;0.70;;;;;;;18.29;56.30;100278.41;4824709;29;20444;-73
2020/12/14 05:55:58;;;;;;;0.45;0.45;;;;;;;18.32;56.43;100278.34;4825182;29;20027;-74
2020/12/14 05:58:23;;;;;;;1.33;0.68;;;;;;;18.33;56.45;100282.69;4823411;29;20045;-74
2020/12/14 06:00:51;;;;;;;0.90;0.57;;;;;;;18.30;56.51;100269.66;4821750;29;20066;-74
2020/12/14 06:03:17;;;;;;;0.73;0.57;;;;;;;18.30;56.30;100274.91;4800449;29;21585;-74
2020/12/14 06:05:46;;;;;;;0.68;0.55;;;;;;;18.32;56.67;100276.59;4808793;29;20125;-74
2020/12/14 06:08:42;;;;;;;0.55;0.50;;;;;;;18.33;56.27;100256.50;4809163;29;20030;-74
2020/12/14 06:11:07;;;;;;;1.10;0.63;;;;;;;18.41;56.10;100263.41;4782441;29;20039;-74
2020/12/14 06:13:47;;;;;;;1.77;0.77;;;;;;;18.52;55.75;100255.38;4831037;29;20083;-73
2020/12/14 06:16:18;;;;;;;2.97;1.13;;;;;;;18.62;55.90;100266.63;4819320;29;20026;-75
2020/12/14 06:18:45;;;;;;;1.33;0.90;;;;;;;18.64;55.71;100254.38;4809438;29;20130;-75
2020/12/14 06:21:12;;;;;;;1.33;1.00;;;;;;;18.80;55.45;100271.59;4825857;29;20448;-76
2020/12/14 06:23:40;;;;;;;3.78;1.63;;;;;;;18.85;55.66;100278.47;4808559;29;20041;-74
2020/12/14 06:26:06;;;;;;;6.22;2.00;;;;;;;18.79;55.88;100275.09;4809901;29;20478;-75
2020/12/14 06:28:33;;;;;;;3.65;1.52;;;;;;;18.85;55.71;100285.47;4807264;29;20031;-75
2020/12/14 06:30:59;;;;;;;3.35;1.40;;;;;;;18.98;55.60;100283.53;4809651;29;20494;-73
2020/12/14 06:33:37;;;;;;;4.57;1.67;;;;;;;18.95;55.89;100292.31;4806820;29;20077;-75
2020/12/14 06:36:24;;;;;;;7.88;2.05;;;;;;;18.91;55.80;100288.88;4815597;29;20095;-75
2020/12/14 06:38:52;;;;;;;4.78;1.75;;;;;;;18.97;55.72;100287.91;4826767;29;20018;-75
2020/12/14 06:41:24;;;;;;;3.75;2.40;;;;;;;19.00;56.03;100287.00;4797780;29;20482;-76
2020/12/14 06:44:12;;;;;;;7.43;2.20;;;;;;;18.97;55.86;100289.66;4819391;29;20050;-76
2020/12/14 06:46:38;;;;;;;10.48;4.18;;;;;;;19.03;55.77;100281.72;4825686;29;20386;-75
2020/12/14 06:49:08;;;;;;;3.83;1.60;;;;;;;19.03;55.84;100286.94;4826007;29;20030;-75
2020/12/14 06:51:52;;;;;;;3.42;1.85;;;;;;;19.06;55.93;100294.78;4794332;29;20030;-77
2020/12/14 06:54:41;;;;;;;6.25;1.52;;;;;;;19.22;56.02;100293.59;4790245;29;20031;-72
2020/12/14 06:57:07;;;;;;;4.55;1.67;;;;;;;19.13;55.93;100289.38;4822096;29;20098;-72
2020/12/14 06:59:34;;;;;;;3.83;1.60;;;;;;;19.10;56.20;100291.19;4798284;29;20057;-73
2020/12/14 07:02:09;;;;;;;3.42;1.95;;;;;;;19.13;56.09;100280.66;4822344;29;20069;-72
2020/12/14 07:04:36;;;;;;;4.57;2.42;;;;;;;19.15;56.09;100282.38;4777878;29;20031;-72
2020/12/14 07:07:05;;;;;;;6.75;2.65;;;;;;;19.12;55.97;100281.56;4813676;29;20031;-72
2020/12/14 07:09:38;;;;;;;5.32;2.45;;;;;;;19.13;56.17;100286.78;4799309;29;20031;-73
2020/12/14 07:12:09;;;;;;;6.18;2.28;;;;;;;19.19;55.99;100294.56;4800856;29;20035;-72
2020/12/14 07:14:52;;;;;;;4.03;2.10;;;;;;;19.13;56.03;100291.16;4821863;29;20038;-73
2020/12/14 07:17:26;;;;;;;10.00;2.22;;;;;;;19.15;56.10;100287.63;4803953;29;20052;-73
2020/12/14 07:19:55;;;;;;;3.30;1.40;;;;;;;19.21;55.89;100305.84;4808441;29;20046;-72
2020/12/14 07:22:48;;;;;;;2.35;1.50;;;;;;;19.16;56.00;100296.34;4820299;29;20117;-73
2020/12/14 07:25:21;;;;;;;3.08;1.75;;;;;;;19.16;56.13;100299.84;4804080;29;20044;-73
2020/12/14 07:27:47;;;;;;;2.97;1.23;;;;;;;19.21;55.72;100297.16;4797125;29;20530;-73
2020/12/14 07:30:13;;;;;;;3.58;1.40;;;;;;;19.14;56.09;100295.50;4823969;29;20030;-74
2020/12/14 07:32:39;;;;;;;5.00;1.77;;;;;;;19.11;56.25;100299.03;4816702;29;20058;-72
2020/12/14 07:35:06;;;;;;;4.03;1.92;;;;;;;19.25;56.14;100315.41;4806753;29;20043;-72
2020/12/14 07:37:32;;;;;;;3.72;1.98;;;;;;;19.21;55.97;100318.13;4801113;29;20117;-72
2020/12/14 07:39:58;;;;;;;2.33;1.35;;;;;;;19.16;56.20;100306.84;4822903;29;20501;-72
2020/12/14 07:42:30;;;;;;;2.30;1.25;;;;;;;19.27;56.25;100318.88;4811418;29;20051;-72
2020/12/14 07:45:14;;;;;;;4.50;2.85;;;;;;;19.28;55.96;100317.13;4817185;29;20107;-73
2020/12/14 07:47:41;;;;;;;3.28;1.63;;;;;;;19.23;55.94;100325.03;4816906;29;20169;-71
2020/12/14 07:50:25;;;;;;;3.42;1.63;;;;;;;19.28;56.29;100322.34;4796359;29;20032;-72
2020/12/14 07:52:53;;;;;;;1.92;1.10;;;;;;;19.30;55.91;100320.59;4804997;29;20030;-76
2020/12/14 07:55:19;;;;;;;3.35;1.10;;;;;;;19.30;56.12;100330.19;4788035;29;20034;-72
2020/12/14 07:57:47;;;;;;;5.55;1.30;;;;;;;19.25;56.27;100328.50;4800722;29;20038;-72
2020/12/14 08:00:19;;;;;;;1.60;1.10;;;;;;;19.26;56.13;100334.63;4824063;29;20038;-72
2020/12/14 08:02:45;;;;;;;2.03;1.10;;;;;;;19.21;56.01;100336.47;4824170;29;20132;-72
2020/12/14 08:05:13;;;;;;;3.40;1.33;;;;;;;19.18;56.20;100337.38;4823060;29;20303;-72
2020/12/14 08:07:53;;;;;;;2.67;1.27;;;;;;;19.18;56.23;100329.50;4824645;29;20030;-72
2020/12/14 08:10:29;;;;;;;1.75;1.08;;;;;;;19.17;56.24;100342.63;4817284;29;20035;-74
2020/12/14 08:12:56;;;;;;;2.78;1.75;;;;;;;19.21;56.35;100346.94;4807572;29;20045;-73
2020/12/14 08:15:22;;;;;;;3.42;1.23;;;;;;;19.19;56.62;100346.09;4817835;29;20509;-72
2020/12/14 08:17:51;;;;;;;3.35;1.30;;;;;;;19.21;56.44;100354.81;4820383;29;20143;-72
2020/12/14 08:20:43;;;;;;;2.47;1.35;;;;;;;19.26;56.63;100345.09;4807170;29;20038;-72
2020/12/14 08:23:17;;;;;;;4.03;1.25;;;;;;;19.18;56.46;100345.25;4814419;29;20047;-72
2020/12/14 08:25:53;;;;;;;2.17;1.05;;;;;;;19.21;56.58;100345.16;4807842;29;20030;-72
2020/12/14 08:28:33;;;;;;;3.65;1.65;;;;;;;19.27;56.37;100352.09;4823545;29;20055;-72
2020/12/14 08:30:59;;;;;;;2.03;1.40;;;;;;;19.25;56.20;100356.47;4818946;29;20045;-72
2020/12/14 08:33:25;;;;;;;1.75;0.88;;;;;;;19.21;56.44;100349.56;4789065;29;20035;-72
2020/12/14 08:35:53;;;;;;;2.20;1.10;;;;;;;19.26;56.18;100347.72;4789215;29;20490;-72
2020/12/14 08:38:23;;;;;;;2.95;0.95;;;;;;;19.28;56.00;100359.06;4805951;29;20053;-72
2020/12/14 08:40:54;;;;;;;2.38;0.88;;;;;;;19.22;56.29;100356.50;4820152;29;20043;-73
2020/12/14 08:43:21;;;;;;;2.33;1.17;;;;;;;19.32;56.19;100363.38;4822588;29;20047;-72
2020/12/14 08:46:05;;;;;;;1.65;0.73;;;;;;;19.31;56.57;100364.25;4822634;29;20038;-72
2020/12/14 08:48:56;;;;;;;3.20;1.52;;;;;;;19.27;56.25;100365.19;4822877;29;20034;-72
2020/12/14 08:51:27;;;;;;;1.95;1.20;;;;;;;19.32;56.13;100366.00;4820070;29;20046;-72
2020/12/14 08:53:54;;;;;;;1.10;0.68;;;;;;;19.33;56.04;100369.50;4819905;29;20034;-72
2020/12/14 08:56:31;;;;;;;1.98;1.05;;;;;;;19.32;56.04;100366.00;4805817;29;20038;-71
2020/12/14 08:58:58;;;;;;;3.00;0.93;;;;;;;19.43;55.94;100366.69;4810831;29;20041;-72
2020/12/14 09:01:33;;;;;;;1.27;0.75;;;;;;;19.43;55.79;100374.56;4820484;29;20054;-72
2020/12/14 09:04:01;;;;;;;2.85;1.23;;;;;;;19.35;55.98;100378.16;4822351;29;20034;-72
2020/12/14 09:06:34;;;;;;;2.15;1.00;;;;;;;19.45;56.01;100380.63;4807404;29;20030;-72
2020/12/14 09:09:02;;;;;;;3.05;1.42;;;;;;;19.45;55.92;100391.13;4810634;29;20037;-72
2020/12/14 09:11:29;;;;;;;1.42;0.85;;;;;;;19.38;55.91;100388.63;4811238;29;20042;-72
2020/12/14 09:13:59;;;;;;;1.55;0.80;;;;;;;19.45;56.04;100393.75;4819222;29;20068;-72
2020/12/14 09:16:26;;;;;;;0.80;0.70;;;;;;;19.50;55.95;100404.19;4825709;29;20041;-72
2020/12/14 09:18:51;;;;;;;1.90;0.90;;;;;;;19.42;55.86;100403.41;4808274;29;20474;-72
2020/12/14 09:21:18;;;;;;;1.15;0.93;;;;;;;19.47;55.92;100409.47;4823828;29;20037;-72
2020/12/14 09:23:45;;;;;;;1.92;0.85;;;;;;;19.47;55.89;100407.72;4823256;29;20030;-72
2020/12/14 09:26:10;;;;;;;1.38;0.90;;;;;;;19.46;55.78;100410.34;4816837;29;20034;-72
2020/12/14 09:28:36;;;;;;;1.15;0.82;;;;;;;19.45;56.08;100406.88;4787217;29;20390;-72
2020/12/14 09:31:09;;;;;;;2.50;0.90;;;;;;;19.54;55.81;100419.84;4824809;29;20466;-72
2020/12/14 09:33:34;;;;;;;2.05;0.98;;;;;;;19.49;55.90;100415.56;4822177;29;20109;-72
2020/12/14 09:35:59;;;;;;;3.33;1.38;;;;;;;19.46;56.11;100412.97;4794748;29;20042;-72
2020/12/14 09:38:25;;;;;;;2.10;0.73;;;;;;;19.52;55.70;100405.03;4802730;29;20038;-72
2020/12/14 09:40:52;;;;;;;2.78;1.08;;;;;;;19.52;55.73;100416.38;4825622;29;20448;-72
2020/12/14 09:43:18;;;;;;;1.23;0.60;;;;;;;19.49;55.87;100415.56;4821316;29;20054;-72
2020/12/14 09:45:43;;;;;;;0.85;0.60;;;;;;;19.55;55.73;100418.97;4807566;29;20079;-72
2020/12/14 09:48:08;;;;;;;1.85;0.75;;;;;;;19.60;55.57;100426.78;4799349;29;20114;-72
2020/12/14 09:50:33;;;;;;;1.35;0.70;;;;;;;19.52;55.94;100426.00;4811216;29;20081;-72
2020/12/14 09:52:59;;;;;;;2.88;0.75;;;;;;;19.61;55.59;100425.84;4820102;29;20372;-72
2020/12/14 09:55:24;;;;;;;1.27;0.60;;;;;;;19.62;55.54;100417.97;4805643;29;20526;-72
2020/12/14 09:57:49;;;;;;;1.15;0.50;;;;;;;19.58;55.79;100416.31;4807091;29;20061;-72
2020/12/14 10:00:15;;;;;;;1.40;0.70;;;;;;;19.63;55.70;100419.69;4810654;29;20575;-72
2020/12/14 10:02:40;;;;;;;1.25;0.68;;;;;;;19.67;55.59;100422.28;4792729;29;20181;-72
2020/12/14 10:05:06;;;;;;;1.08;0.65;;;;;;;19.60;55.62;100418.91;4806292;29;20171;-72
2020/12/14 10:07:31;;;;;;;1.73;1.25;;;;;;;19.65;55.68;100421.44;4798326;29;20046;-72
2020/12/14 10:09:56;;;;;;;1.02;0.70;;;;;;;19.70;55.47;100417.84;4790935;29;20051;-72
2020/12/14 10:12:25;;;;;;;1.48;0.82;;;;;;;19.64;55.83;100423.19;4775905;29;20390;-71
2020/12/14 10:14:53;;;;;;;0.82;0.68;;;;;;;19.63;56.06;100419.69;4789466;29;20066;-70
2020/12/14 10:17:19;;;;;;;1.23;0.82;;;;;;;19.63;55.93;100422.31;4816436;29;20042;-70
2020/12/14 10:19:45;;;;;;;1.17;0.68;;;;;;;19.57;55.79;100422.44;4812608;29;20042;-72
2020/12/14 10:22:10;;;;;;;1.25;0.73;;;;;;;19.57;56.18;100432.06;4773708;29;20051;-72
2020/12/14 10:24:35;;;;;;;2.83;0.68;;;;;;;19.65;55.75;100439.78;4806003;29;20043;-71
2020/12/14 10:27:01;;;;;;;0.80;0.63;;;;;;;19.61;55.79;100437.22;4821721;29;20046;-72
2020/12/14 10:29:26;;;;;;;0.70;0.50;;;;;;;19.52;55.94;100447.00;4807215;29;20031;-72
2020/12/14 10:31:51;;;;;;;1.70;0.60;;;;;;;19.63;55.98;100434.56;4786433;29;20066;-72
2020/12/14 10:34:17;;;;;;;1.45;0.77;;;;;;;19.64;55.83;100449.41;4785561;29;20122;-72
2020/12/14 10:36:46;;;;;;;0.80;0.50;;;;;;;19.55;55.84;100442.56;4820203;29;20038;-72
2020/12/14 10:39:12;;;;;;;2.63;0.85;;;;;;;19.62;55.89;100440.69;4791408;29;20031;-72
2020/12/14 10:41:37;;;;;;;1.20;0.60;;;;;;;19.62;55.87;100456.44;4801211;29;20574;-72
2020/12/14 10:44:03;;;;;;;0.82;0.73;;;;;;;19.59;55.72;100453.88;4804062;29;20059;-72
2020/12/14 10:46:28;;;;;;;0.80;0.60;;;;;;;19.64;55.90;100462.53;4808138;29;20019;-72
2020/12/14 10:48:53;;;;;;;0.95;0.75;;;;;;;19.64;55.72;100459.91;4805049;29;20446;-72
2020/12/14 10:51:19;;;;;;;1.13;0.68;;;;;;;19.58;55.72;100460.91;4807895;29;20571;-71
2020/12/14 10:53:44;;;;;;;1.65;0.82;;;;;;;19.64;55.88;100462.53;4791848;29;20080;-72
2020/12/14 10:56:09;;;;;;;1.30;0.65;;;;;;;19.68;55.48;100464.22;4806699;29;20103;-71
2020/12/14 10:58:35;;;;;;;1.05;0.45;;;;;;;19.66;55.56;100466.00;4798569;29;20521;-72
2020/12/14 11:01:00;;;;;;;0.77;0.52;;;;;;;19.61;55.72;100454.72;4790851;29;20077;-72
2020/12/14 11:03:25;;;;;;;0.90;0.50;;;;;;;19.69;55.61;100459.84;4812044;29;20069;-71
2020/12/14 11:05:54;;;;;;;0.85;0.52;;;;;;;19.68;55.68;100468.59;4806717;29;20080;-72
2020/12/14 11:08:20;;;;;;;0.60;0.45;;;;;;;19.66;55.78;100459.88;4821531;29;20053;-75
2020/12/14 11:10:46;;;;;;;2.63;0.95;;;;;;;19.80;55.59;100465.78;4808117;29;20034;-71
2020/12/14 11:13:12;;;;;;;1.25;0.70;;;;;;;19.87;55.79;100472.66;4809138;29;20050;-72
2020/12/14 11:15:37;;;;;;;1.27;1.08;;;;;;;19.94;55.71;100474.31;4793257;29;20062;-72
2020/12/14 11:18:02;;;;;;;1.92;0.77;;;;;;;19.89;55.79;100468.25;4796933;29;20047;-72
2020/12/14 11:20:28;;;;;;;10.50;1.30;;;;;;;19.82;56.02;100471.88;4814570;29;20508;-73
2020/12/14 11:22:53;;;;;;;2.97;0.90;;;;;;;19.88;55.94;100463.88;4790220;29;20544;-72
2020/12/14 11:25:18;;;;;;;10.63;7.80;;;;;;;19.87;56.20;100463.03;4808917;29;20063;-72
2020/12/14 11:27:44;;;;;;;43.00;32.72;;;;;;;19.83;56.54;100464.00;4791040;29;20041;-72